Sunday, October 22, 2017, 8:39 PM EDT
Back to Local

KYNG, Youngstown-warren Reg Airprt

Location: Vienna, OH, United States Lat: 41.25
Local Time: 8:39 PM EDT ( 0:39 GMT) Lon: -80.667
Time Zone: US/Eastern Elev: 1197 ft

Show me the last for .
Show Decoded

2017-10-22 19:51 METAR KYNG 222351Z 13006KT 10SM BKN240 16/10 A3017 RMK AO2 SLP217 T01560100
                 10244 20150 50002 =
2017-10-22 18:51 METAR KYNG 222251Z 14004KT 10SM FEW140 SCT170 BKN240 19/09 A3018 RMK AO2 SLP218
                 T01940089 =
2017-10-22 17:51 METAR KYNG 222151Z 17006KT 10SM SCT140 BKN170 BKN240 23/09 A3017 RMK AO2 SLP213
                 T02280094 =
2017-10-22 16:51 METAR KYNG 222051Z VRB05KT 10SM SCT170 BKN240 24/11 A3016 RMK AO2 SLP212
                 T02390106 58020 =
2017-10-22 15:51 METAR KYNG 221951Z 16008KT 10SM BKN250 24/11 A3019 RMK AO2 SLP219 T02390106 =
2017-10-22 14:51 METAR KYNG 221851Z VRB06KT 10SM BKN250 24/10 A3020 RMK AO2 SLP224 T02390100 =
2017-10-22 13:51 METAR KYNG 221751Z 16007KT 10SM BKN250 23/12 A3022 RMK AO2 SLP230 T02330117
                 10233 20111 58016 =
2017-10-22 12:51 METAR KYNG 221651Z 15008KT 10SM SCT250 22/12 A3025 RMK AO2 SLP242 T02170117 =
2017-10-22 11:51 METAR KYNG 221551Z 20008KT 10SM SCT250 19/11 A3028 RMK AO2 SLP252 T01940111 =
2017-10-22 10:51 METAR KYNG 221451Z 18008KT 10SM SCT250 19/12 A3027 RMK AO2 SLP249 T01890117
                 58000 =
2017-10-22 09:51 METAR KYNG 221351Z 17010KT 10SM BKN250 17/11 A3028 RMK AO2 SLP252 T01720111 =
2017-10-22 08:51 METAR KYNG 221251Z 13006KT 10SM BKN250 14/11 A3029 RMK AO2 SLP255 T01390106 =
2017-10-22 07:51 METAR KYNG 221151Z 13008KT 10SM BKN250 11/09 A3027 RMK AO2 SLP251 T01110094
                 10156 20083 58001 =
2017-10-22 06:51 METAR KYNG 221051Z 13006KT 10SM SCT250 11/09 A3027 RMK AO2 SLP251 T01060094 =
2017-10-22 05:51 METAR KYNG 220951Z 12008KT 10SM FEW250 11/09 A3028 RMK AO2 SLP251 T01060094 =
2017-10-22 04:51 METAR KYNG 220851Z 13006KT 10SM FEW250 09/08 A3027 RMK AO2 SLP251 T00940083
                 53012 =
2017-10-22 03:51 METAR KYNG 220751Z 14005KT 10SM SCT250 12/09 A3026 RMK AO2 SLP244 T01170094 =
2017-10-22 02:51 METAR KYNG 220651Z 13005KT 10SM SCT250 12/09 A3025 RMK AO2 SLP240 T01170094 =
2017-10-22 01:51 METAR KYNG 220551Z 16006KT 10SM SCT250 15/10 A3024 RMK AO2 SLP237 T01500100
                 10183 20111 56005 =
2017-10-22 00:51 METAR KYNG 220451Z 16006KT 10SM SCT250 14/10 A3024 RMK AO2 SLP239 T01440100
                 402280044 =
2017-10-21 23:51 METAR KYNG 220351Z 15006KT 10SM SCT250 13/09 A3025 RMK AO2 SLP241 T01280094 =
2017-10-21 22:51 METAR KYNG 220251Z 16005KT 10SM BKN240 14/10 A3026 RMK AO2 SLP245 T01440100
                 58001 =
2017-10-21 21:51 METAR KYNG 220151Z 17006KT 10SM OVC240 17/11 A3027 RMK AO2 SLP248 T01670106 =
2017-10-21 20:51 METAR KYNG 220051Z 18003KT 10SM BKN240 17/11 A3027 RMK AO2 SLP249 T01720106 =

Support USWX by starting your Amazon purchase here.